createdAt,value
2022-08-09T00:00:04.951Z,66.72
2022-08-09T00:02:43.065Z,66.75
2022-08-09T00:06:17.499Z,66.42
2022-08-09T00:08:04.188Z,66.81
2022-08-09T00:10:37.686Z,66.72
2022-08-09T00:13:16.950Z,66.66
2022-08-09T00:15:59.638Z,67.14
2022-08-09T00:18:35.617Z,67.28
2022-08-09T00:21:08.483Z,67.77
2022-08-09T00:23:55.531Z,67.57
2022-08-09T00:26:32.650Z,68.12
2022-08-09T00:29:02.490Z,67.89
2022-08-09T00:31:58.802Z,68.11
2022-08-09T00:34:19.806Z,68.15
2022-08-09T00:36:48.763Z,68.43
2022-08-09T00:40:01.813Z,68.59
2022-08-09T00:44:14.427Z,68.83
2022-08-09T00:44:50.567Z,68.79
2022-08-09T00:47:21.450Z,69.51
2022-08-09T00:49:55.051Z,69.14
2022-08-09T00:52:30.700Z,69.24
2022-08-09T00:55:32.802Z,69.67
2022-08-09T00:58:03.702Z,68.84
2022-08-09T01:00:35.172Z,68.93
2022-08-09T01:03:22.616Z,69.76
2022-08-09T01:06:18.114Z,69.75
2022-08-09T01:09:16.397Z,69.55
2022-08-09T01:12:02.297Z,69.41
2022-08-09T01:14:52.653Z,69.82
2022-08-09T01:17:25.367Z,69.56
2022-08-09T01:20:05.210Z,70.22
2022-08-09T01:22:38.198Z,69.35
2022-08-09T01:25:19.131Z,69.54
2022-08-09T01:27:52.159Z,69.40
2022-08-09T01:30:28.458Z,69.73
2022-08-09T01:33:04.445Z,70.02
2022-08-09T01:35:42.306Z,70.35
2022-08-09T01:38:14.976Z,70.08
2022-08-09T01:40:52.970Z,70.16
2022-08-09T01:43:42.018Z,70.00
2022-08-09T01:46:27.716Z,70.76
2022-08-09T01:49:09.597Z,70.56
2022-08-09T01:51:39.405Z,70.42
2022-08-09T01:54:13.897Z,70.39
2022-08-09T01:56:47.188Z,70.44
2022-08-09T01:59:23.614Z,70.52
2022-08-09T02:01:59.810Z,70.94
2022-08-09T02:04:31.997Z,70.39
2022-08-09T02:07:18.299Z,70.40
2022-08-09T02:10:04.103Z,70.36
2022-08-09T02:12:33.946Z,70.10
2022-08-09T02:15:06.367Z,69.97
2022-08-09T02:18:00.271Z,70.07
2022-08-09T02:20:26.202Z,69.87
2022-08-09T02:23:26.405Z,70.02
2022-08-09T02:26:01.432Z,69.68
2022-08-09T02:28:40.634Z,69.91
2022-08-09T02:31:20.403Z,69.88
2022-08-09T02:34:06.480Z,69.70
2022-08-09T02:36:42.029Z,69.90
2022-08-09T02:39:33.606Z,69.90
2022-08-09T02:42:08.089Z,69.70
2022-08-09T02:44:38.003Z,69.59
2022-08-09T02:47:11.587Z,69.87
2022-08-09T02:50:01.747Z,69.08
2022-08-09T02:52:45.053Z,69.57
2022-08-09T02:55:20.615Z,69.17
2022-08-09T02:58:00.398Z,69.19
2022-08-09T03:00:47.852Z,69.08
2022-08-09T03:04:12.856Z,68.56
2022-08-09T03:06:16.256Z,68.72
2022-08-09T03:08:45.681Z,68.45
2022-08-09T03:12:04.683Z,68.23
2022-08-09T03:14:06.976Z,68.00
2022-08-09T03:16:37.376Z,67.94
2022-08-09T03:19:14.422Z,67.91
2022-08-09T03:21:58.142Z,67.84
2022-08-09T03:24:31.610Z,67.65
2022-08-09T03:27:17.148Z,67.89
2022-08-09T03:29:57.636Z,67.47
2022-08-09T03:32:32.084Z,67.68
2022-08-09T03:35:00.681Z,67.84
2022-08-09T03:37:55.649Z,68.14
2022-08-09T03:40:18.178Z,67.86
2022-08-09T03:42:46.645Z,67.91
2022-08-09T03:45:15.617Z,67.68
2022-08-09T03:47:46.810Z,67.59
2022-08-09T03:50:27.698Z,67.50
2022-08-09T03:52:58.217Z,67.29
2022-08-09T03:55:27.078Z,67.36
2022-08-09T03:58:06.585Z,67.06
2022-08-09T04:00:42.943Z,67.09
2022-08-09T04:03:15.317Z,67.07
2022-08-09T04:05:52.359Z,67.00
2022-08-09T04:08:19.376Z,66.81
2022-08-09T04:11:01.436Z,66.37
2022-08-09T04:14:37.670Z,65.86
2022-08-09T04:16:20.134Z,66.12
2022-08-09T04:18:49.090Z,65.92
2022-08-09T04:21:19.305Z,66.15
2022-08-09T04:23:54.240Z,66.02
2022-08-09T04:26:24.853Z,65.89
2022-08-09T04:29:09.597Z,65.76
2022-08-09T04:31:46.781Z,65.72
2022-08-09T04:34:18.825Z,65.72
2022-08-09T04:37:03.277Z,65.95
2022-08-09T04:39:38.008Z,65.92
2022-08-09T04:43:08.266Z,65.82
2022-08-09T04:45:53.319Z,65.76
2022-08-09T04:48:23.937Z,65.51
2022-08-09T04:51:00.914Z,65.62
2022-08-09T04:53:28.878Z,65.77
2022-08-09T04:55:59.855Z,65.65
2022-08-09T04:58:29.742Z,65.62
2022-08-09T05:00:59.675Z,65.46
2022-08-09T05:03:40.322Z,65.33
2022-08-09T05:06:22.133Z,65.02
2022-08-09T05:09:00.652Z,64.77
2022-08-09T05:11:30.604Z,64.59
2022-08-09T05:14:01.017Z,64.59
2022-08-09T05:16:43.518Z,64.39
2022-08-09T05:19:25.919Z,64.01
2022-08-09T05:21:55.958Z,64.14
2022-08-09T05:24:25.809Z,64.03
2022-08-09T05:26:53.600Z,63.85
2022-08-09T05:29:24.189Z,63.95
2022-08-09T05:32:02.164Z,63.71
2022-08-09T05:34:32.567Z,63.73
2022-08-09T05:37:06.779Z,63.11
2022-08-09T05:39:43.117Z,63.12
2022-08-09T05:42:20.622Z,63.00
2022-08-09T05:44:53.575Z,62.82
2022-08-09T05:47:23.232Z,62.49
2022-08-09T05:50:25.257Z,62.21
2022-08-09T05:52:43.489Z,61.97
2022-08-09T05:55:18.130Z,62.05
2022-08-09T05:57:51.296Z,61.77
2022-08-09T06:00:29.686Z,61.58
2022-08-09T06:02:58.865Z,61.47
2022-08-09T06:05:54.756Z,60.99
2022-08-09T06:08:33.007Z,60.99
2022-08-09T06:11:01.250Z,61.23
2022-08-09T06:13:34.235Z,61.05
2022-08-09T06:16:04.517Z,61.13
2022-08-09T06:18:33.059Z,61.38
2022-08-09T06:21:01.572Z,61.16
2022-08-09T06:23:55.104Z,60.81
2022-08-09T06:26:22.345Z,60.67
2022-08-09T06:29:01.059Z,60.53
2022-08-09T06:31:39.695Z,60.40
2022-08-09T06:34:20.393Z,60.27
2022-08-09T06:36:59.085Z,60.29
2022-08-09T06:39:49.008Z,60.35
2022-08-09T06:42:14.643Z,60.48
2022-08-09T06:44:44.408Z,60.52
2022-08-09T06:47:19.076Z,60.85
2022-08-09T06:50:14.001Z,60.61
2022-08-09T06:52:33.246Z,60.66
2022-08-09T06:55:00.503Z,60.75
2022-08-09T06:58:02.213Z,60.57
2022-08-09T07:00:55.411Z,60.28
2022-08-09T07:03:16.540Z,60.24
2022-08-09T07:06:02.740Z,59.85
2022-08-09T07:08:30.735Z,60.09
2022-08-09T07:10:57.826Z,59.97
2022-08-09T07:13:27.889Z,59.86
2022-08-09T07:16:43.269Z,60.05
2022-08-09T07:18:47.560Z,60.37
2022-08-09T07:21:17.574Z,60.45
2022-08-09T07:23:56.273Z,60.37
2022-08-09T07:26:26.291Z,60.24
2022-08-09T07:29:08.917Z,60.32
2022-08-09T07:31:45.334Z,60.24
2022-08-09T07:34:20.258Z,60.15
2022-08-09T07:36:50.620Z,59.99
2022-08-09T07:39:40.251Z,59.90
2022-08-09T07:42:08.791Z,59.78
2022-08-09T07:44:52.179Z,59.54
2022-08-09T07:47:23.291Z,59.70
2022-08-09T07:50:09.718Z,59.57
2022-08-09T07:52:38.548Z,59.53
2022-08-09T07:55:09.711Z,59.21
2022-08-09T07:57:47.167Z,59.17
2022-08-09T08:00:20.530Z,58.63
2022-08-09T08:03:04.897Z,58.09
2022-08-09T08:05:53.461Z,57.65
2022-08-09T08:08:59.782Z,57.28
2022-08-09T08:12:11.321Z,56.93
2022-08-09T08:13:56.596Z,56.33
2022-08-09T08:16:31.365Z,56.10
2022-08-09T08:19:03.049Z,55.71
2022-08-09T08:21:31.888Z,55.53
2022-08-09T08:24:01.014Z,55.52
2022-08-09T08:26:47.479Z,55.32
2022-08-09T08:29:20.400Z,55.28
2022-08-09T08:32:03.204Z,54.86
2022-08-09T08:34:36.745Z,54.92
2022-08-09T08:37:04.088Z,54.67
2022-08-09T08:39:38.192Z,54.29
2022-08-09T08:42:11.093Z,53.94
2022-08-09T08:44:39.653Z,53.83
2022-08-09T08:47:12.343Z,53.66
2022-08-09T08:49:48.190Z,53.10
2022-08-09T08:52:52.667Z,52.82
2022-08-09T08:55:08.150Z,52.80
2022-08-09T08:57:37.110Z,52.71
2022-08-09T09:00:16.764Z,52.42
2022-08-09T09:02:52.783Z,52.21
2022-08-09T09:05:57.443Z,51.50
2022-08-09T09:11:07.106Z,51.78
2022-08-09T09:13:56.724Z,51.39
2022-08-09T09:16:34.423Z,51.08
2022-08-09T09:22:23.819Z,51.32
2022-08-09T09:26:00.321Z,51.40
2022-08-09T09:28:05.766Z,51.51
2022-08-09T09:30:40.109Z,51.06
2022-08-09T09:33:15.957Z,51.00
2022-08-09T09:36:01.744Z,50.51
2022-08-09T09:38:53.278Z,50.48
2022-08-09T09:41:33.001Z,50.20
2022-08-09T09:44:11.143Z,50.42
2022-08-09T09:46:50.405Z,50.59
2022-08-09T09:50:07.465Z,50.30
2022-08-09T09:52:33.756Z,50.72
2022-08-09T09:55:23.858Z,50.61
2022-08-09T09:58:16.413Z,50.07
2022-08-09T10:00:55.750Z,50.31
2022-08-09T10:03:58.084Z,49.80
2022-08-09T10:06:32.287Z,49.79
2022-08-09T10:09:11.957Z,49.93
2022-08-09T10:12:12.081Z,49.93
2022-08-09T10:14:48.103Z,50.82
2022-08-09T10:17:51.417Z,50.97
2022-08-09T10:20:27.577Z,51.17
2022-08-09T10:23:17.232Z,51.21
2022-08-09T10:26:06.998Z,51.35
2022-08-09T10:28:39.985Z,51.22
2022-08-09T10:34:18.854Z,50.85
2022-08-09T10:36:57.330Z,51.00
2022-08-09T10:40:03.500Z,50.77
2022-08-09T10:42:55.616Z,50.86
2022-08-09T10:45:35.373Z,50.74
2022-08-09T10:48:16.318Z,50.41
2022-08-09T10:51:20.446Z,50.35
2022-08-09T10:54:12.523Z,49.53
2022-08-09T10:56:43.976Z,49.72
2022-08-09T10:59:31.848Z,48.91
2022-08-09T11:03:18.064Z,48.22
2022-08-09T11:05:36.780Z,48.29
2022-08-09T11:09:15.284Z,47.74
2022-08-09T11:12:00.852Z,47.12
2022-08-09T11:14:44.089Z,47.15
2022-08-09T11:17:19.531Z,46.32
2022-08-09T11:20:11.089Z,46.44
2022-08-09T11:22:40.941Z,45.99
2022-08-09T11:25:10.383Z,46.37
2022-08-09T11:28:04.836Z,45.73
2022-08-09T11:30:52.117Z,45.55
2022-08-09T11:33:54.240Z,45.52
2022-08-09T11:36:42.900Z,45.73
2022-08-09T11:39:12.075Z,46.18
2022-08-09T11:41:40.770Z,46.31
2022-08-09T11:44:08.903Z,46.63
2022-08-09T11:46:58.233Z,46.52
2022-08-09T11:50:56.385Z,46.55
2022-08-09T11:53:15.958Z,46.36
2022-08-09T11:55:53.140Z,46.83
2022-08-09T11:58:33.215Z,46.83
2022-08-09T12:01:08.560Z,46.28
2022-08-09T12:03:56.039Z,45.75
2022-08-09T12:06:32.380Z,45.18
2022-08-09T12:09:06.159Z,44.62
2022-08-09T12:12:13.225Z,44.01
2022-08-09T12:15:49.680Z,44.15
2022-08-09T12:18:25.961Z,43.96
2022-08-09T12:21:03.043Z,43.93
2022-08-09T12:23:56.434Z,43.86
2022-08-09T12:29:13.477Z,42.60
2022-08-09T12:30:01.898Z,41.62
2022-08-09T12:32:48.381Z,42.17
2022-08-09T12:35:19.336Z,43.39
2022-08-09T12:37:51.701Z,42.53
2022-08-09T12:40:23.138Z,42.76
2022-08-09T12:42:52.800Z,43.33
2022-08-09T12:45:34.323Z,43.87
2022-08-09T12:48:19.826Z,44.30
2022-08-09T12:50:56.196Z,44.89
2022-08-09T12:53:40.891Z,45.15
2022-08-09T12:56:43.045Z,45.85
2022-08-09T12:59:10.650Z,45.84
2022-08-09T13:01:46.967Z,46.00
2022-08-09T13:04:35.880Z,45.83
2022-08-09T13:07:13.476Z,45.58
2022-08-09T13:09:52.682Z,45.56
2022-08-09T13:12:22.530Z,45.05
2022-08-09T13:14:53.799Z,45.03
2022-08-09T13:17:21.843Z,45.09
2022-08-09T13:20:18.808Z,45.28
2022-08-09T13:23:00.928Z,45.18
2022-08-09T13:25:54.334Z,45.06
2022-08-09T13:28:34.547Z,45.00
2022-08-09T13:32:19.577Z,44.92
2022-08-09T13:33:59.737Z,45.27
2022-08-09T13:36:40.706Z,45.45
2022-08-09T13:41:52.558Z,45.54
2022-08-09T13:42:03.535Z,45.11
2022-08-09T13:44:32.599Z,44.48
2022-08-09T13:47:27.536Z,44.11
2022-08-09T13:49:55.971Z,43.79
2022-08-09T13:52:25.048Z,43.84
2022-08-09T13:54:59.849Z,44.08
2022-08-09T13:57:37.387Z,44.53
2022-08-09T14:00:19.827Z,44.87
2022-08-09T14:03:16.930Z,45.34
2022-08-09T14:05:58.351Z,45.74
2022-08-09T14:08:28.383Z,46.14
2022-08-09T14:11:51.158Z,46.24
2022-08-09T14:14:26.900Z,46.52
2022-08-09T14:17:01.795Z,46.92
2022-08-09T14:19:30.327Z,47.32
2022-08-09T14:22:00.558Z,48.01
2022-08-09T14:24:32.309Z,48.18
2022-08-09T14:27:01.272Z,48.53
2022-08-09T14:30:34.225Z,48.68
2022-08-09T14:32:19.693Z,48.85
2022-08-09T14:34:56.901Z,48.24
2022-08-09T14:37:28.099Z,48.68
2022-08-09T14:39:55.780Z,48.53
2022-08-09T14:42:32.065Z,48.64
2022-08-09T14:46:58.035Z,49.11
2022-08-09T14:48:05.569Z,48.77
2022-08-09T14:50:35.180Z,48.67
2022-08-09T14:53:12.093Z,49.12
2022-08-09T14:55:42.063Z,48.80
2022-08-09T14:58:10.098Z,48.91
2022-08-09T15:00:39.845Z,48.80
2022-08-09T15:03:10.536Z,48.33
2022-08-09T15:05:39.070Z,47.94
2022-08-09T15:08:10.371Z,48.09
2022-08-09T15:10:38.129Z,48.26
2022-08-09T15:13:08.900Z,48.07
2022-08-09T15:15:39.392Z,48.62
2022-08-09T15:18:14.127Z,49.03
2022-08-09T15:21:56.133Z,48.88
2022-08-09T15:24:03.598Z,49.30
2022-08-09T15:26:18.850Z,49.25
2022-08-09T15:28:57.940Z,49.41
2022-08-09T15:31:41.026Z,49.68
2022-08-09T15:34:31.116Z,49.78
2022-08-09T15:36:58.301Z,50.16
2022-08-09T15:39:26.195Z,50.33
2022-08-09T15:42:11.959Z,50.60
2022-08-09T15:44:46.590Z,50.71
2022-08-09T15:47:14.488Z,50.95
2022-08-09T15:50:03.916Z,51.26
2022-08-09T15:52:37.808Z,51.48
2022-08-09T15:55:15.530Z,51.76
2022-08-09T15:57:44.329Z,51.79
2022-08-09T16:00:25.703Z,52.02
2022-08-09T16:02:56.398Z,52.13
2022-08-09T16:05:47.173Z,52.61
2022-08-09T16:08:29.795Z,52.40
2022-08-09T16:11:01.670Z,52.80
2022-08-09T16:14:04.273Z,52.95
2022-08-09T16:16:26.110Z,52.83
2022-08-09T16:18:55.255Z,52.44
2022-08-09T16:21:25.192Z,52.46
2022-08-09T16:24:02.409Z,52.73
2022-08-09T16:26:36.270Z,52.75
2022-08-09T16:29:11.762Z,52.77
2022-08-09T16:32:19.329Z,52.87
2022-08-09T16:34:55.005Z,52.48
2022-08-09T16:37:55.686Z,52.49
2022-08-09T16:40:11.494Z,52.96
2022-08-09T16:42:45.130Z,53.16
2022-08-09T16:45:19.886Z,53.24
2022-08-09T16:48:40.193Z,53.32
2022-08-09T16:50:46.201Z,52.70
2022-08-09T16:53:34.013Z,52.33
2022-08-09T16:56:07.643Z,51.96
2022-08-09T16:58:49.781Z,51.86
2022-08-09T17:01:23.764Z,51.68
2022-08-09T17:03:53.131Z,51.98
2022-08-09T17:06:31.802Z,51.90
2022-08-09T17:09:12.051Z,51.90
2022-08-09T17:11:52.444Z,52.36
2022-08-09T17:14:27.571Z,52.85
2022-08-09T17:17:02.306Z,53.61
2022-08-09T17:19:46.386Z,53.99
2022-08-09T17:22:30.795Z,54.19
2022-08-09T17:25:03.495Z,54.60
2022-08-09T17:27:32.808Z,54.90
2022-08-09T17:30:06.852Z,55.50
2022-08-09T17:32:46.290Z,55.47
2022-08-09T17:35:14.676Z,55.71
2022-08-09T17:38:12.745Z,56.30
2022-08-09T17:40:34.525Z,56.46
2022-08-09T17:43:32.560Z,57.23
2022-08-09T17:46:04.248Z,57.00
2022-08-09T17:48:52.157Z,57.98
2022-08-09T17:51:21.489Z,57.50
2022-08-09T17:53:55.013Z,57.66
2022-08-09T17:56:28.792Z,58.34
2022-08-09T17:59:11.538Z,58.56
2022-08-09T18:01:58.181Z,58.14
2022-08-09T18:04:27.360Z,58.24
2022-08-09T18:06:55.781Z,58.38
2022-08-09T18:09:40.396Z,58.82
2022-08-09T18:12:15.304Z,59.32
2022-08-09T18:14:49.804Z,59.15
2022-08-09T18:17:27.725Z,58.95
2022-08-09T18:20:55.072Z,59.51
2022-08-09T18:22:56.306Z,59.41
2022-08-09T18:25:53.031Z,59.57
2022-08-09T18:28:21.575Z,59.93
2022-08-09T18:31:24.971Z,60.09
2022-08-09T18:34:11.035Z,60.14
2022-08-09T18:36:38.474Z,60.46
2022-08-09T18:39:06.437Z,60.40
2022-08-09T18:41:36.333Z,60.87
2022-08-09T18:44:12.429Z,60.59
2022-08-09T18:46:47.090Z,61.00
2022-08-09T18:49:20.101Z,61.18
2022-08-09T18:51:58.373Z,61.92
2022-08-09T18:54:52.190Z,61.66
2022-08-09T18:57:42.734Z,61.65
2022-08-09T19:00:16.361Z,61.49
2022-08-09T19:02:51.036Z,61.88
2022-08-09T19:05:28.817Z,62.03
2022-08-09T19:08:18.298Z,62.17
2022-08-09T19:10:50.917Z,62.25
2022-08-09T19:13:38.054Z,62.43
2022-08-09T19:16:11.177Z,62.65
2022-08-09T19:18:45.292Z,62.70
2022-08-09T19:21:13.273Z,62.92
2022-08-09T19:24:37.240Z,63.27
2022-08-09T19:26:36.069Z,63.89
2022-08-09T19:29:15.289Z,63.36
2022-08-09T19:31:51.248Z,63.54
2022-08-09T19:34:22.539Z,63.82
2022-08-09T19:36:52.089Z,63.84
2022-08-09T19:39:20.849Z,63.96
2022-08-09T19:41:57.127Z,64.15
2022-08-09T19:44:25.001Z,64.16
2022-08-09T19:46:53.555Z,64.12
2022-08-09T19:50:05.109Z,64.41
2022-08-09T19:52:10.161Z,64.48
2022-08-09T19:54:39.976Z,64.38
2022-08-09T19:57:08.479Z,64.58
2022-08-09T19:59:59.763Z,64.66
2022-08-09T20:04:12.141Z,64.98
2022-08-09T20:05:15.159Z,65.06
2022-08-09T20:07:58.762Z,65.03
2022-08-09T20:10:34.573Z,65.49
2022-08-09T20:13:05.427Z,65.27
2022-08-09T20:16:35.699Z,65.69
2022-08-09T20:18:22.844Z,65.14
2022-08-09T20:20:56.707Z,65.62
2022-08-09T20:23:24.430Z,65.75
2022-08-09T20:26:07.047Z,65.58
2022-08-09T20:28:47.772Z,65.93
2022-08-09T20:31:16.135Z,66.09
2022-08-09T20:33:44.723Z,66.17
2022-08-09T20:36:12.736Z,66.55
2022-08-09T20:41:34.662Z,66.37
2022-08-09T20:44:06.769Z,66.94
2022-08-09T20:46:42.782Z,66.63
2022-08-09T20:49:11.546Z,66.77
2022-08-09T20:51:41.467Z,67.15
2022-08-09T20:54:17.136Z,67.02
2022-08-09T20:56:49.642Z,67.82
2022-08-09T20:59:49.996Z,67.05
2022-08-09T21:02:10.908Z,67.22
2022-08-09T21:05:51.070Z,67.58
2022-08-09T21:07:38.694Z,67.80
2022-08-09T21:10:08.228Z,67.61
2022-08-09T21:12:38.352Z,68.34
2022-08-09T21:15:06.383Z,68.11
2022-08-09T21:18:21.016Z,67.63
2022-08-09T21:20:30.361Z,67.91
2022-08-09T21:23:00.614Z,68.18
2022-08-09T21:25:55.652Z,68.23
2022-08-09T21:28:36.025Z,69.01
2022-08-09T21:31:18.221Z,69.02
2022-08-09T21:33:52.507Z,68.90
2022-08-09T21:36:23.154Z,68.68
2022-08-09T21:38:57.602Z,68.72
2022-08-09T21:42:04.739Z,69.63
2022-08-09T21:44:33.100Z,68.96
2022-08-09T21:47:03.700Z,69.08
2022-08-09T21:49:39.910Z,69.26
2022-08-09T21:52:14.821Z,69.17
2022-08-09T21:54:49.578Z,69.70
2022-08-09T21:57:37.121Z,69.62
2022-08-09T22:00:11.076Z,69.57
2022-08-09T22:02:40.264Z,69.24
2022-08-09T22:05:22.919Z,69.60
2022-08-09T22:07:53.370Z,69.55
2022-08-09T22:10:23.283Z,69.60
2022-08-09T22:12:52.323Z,69.44
2022-08-09T22:15:20.673Z,69.76
2022-08-09T22:17:50.490Z,69.58
2022-08-09T22:20:27.408Z,69.74
2022-08-09T22:22:58.443Z,69.72
2022-08-09T22:26:05.422Z,69.74
2022-08-09T22:28:13.133Z,69.73
2022-08-09T22:30:48.826Z,69.46
2022-08-09T22:33:17.350Z,69.45
2022-08-09T22:36:01.375Z,69.33
2022-08-09T22:38:29.851Z,69.51
2022-08-09T22:40:58.381Z,69.45
2022-08-09T22:44:01.735Z,69.44
2022-08-09T22:48:12.975Z,69.53
2022-08-09T22:49:26.507Z,70.17
2022-08-09T22:51:57.484Z,69.86
2022-08-09T22:54:26.094Z,69.81
2022-08-09T22:56:57.149Z,69.72
2022-08-09T22:59:57.702Z,69.44
2022-08-09T23:02:15.615Z,69.77
2022-08-09T23:04:54.279Z,69.64
2022-08-09T23:08:29.150Z,69.96
2022-08-09T23:10:30.392Z,69.86
2022-08-09T23:12:57.861Z,69.93
2022-08-09T23:15:24.961Z,70.01
2022-08-09T23:17:51.991Z,70.19
2022-08-09T23:20:19.005Z,70.16
2022-08-09T23:22:46.763Z,70.51
2022-08-09T23:25:13.711Z,70.47
2022-08-09T23:28:11.658Z,70.87
2022-08-09T23:30:28.708Z,70.83
2022-08-09T23:32:55.764Z,70.54
2022-08-09T23:35:23.118Z,71.04
2022-08-09T23:37:50.055Z,71.19
2022-08-09T23:40:17.302Z,70.99
2022-08-09T23:42:44.239Z,71.28
2022-08-09T23:45:11.454Z,70.87
2022-08-09T23:47:58.540Z,71.11
2022-08-09T23:50:25.544Z,71.26
2022-08-09T23:52:52.842Z,71.15
2022-08-09T23:55:20.116Z,71.34
2022-08-09T23:57:59.034Z,71.44
